sensor_id;sensor_type;location;lat;lon;timestamp;pressure;altitude;pressure_sealevel;temperature;humidity
72525;BME280;60547;48.502;8.996;2023-04-16T00:00:17;97836.41;;;7.38;93.81
72525;BME280;60547;48.502;8.996;2023-04-16T00:02:42;97820.09;;;7.17;94.79
72525;BME280;60547;48.502;8.996;2023-04-16T00:05:08;97831.97;;;7.17;95.45
72525;BME280;60547;48.502;8.996;2023-04-16T00:07:34;97818.06;;;7.21;94.40
72525;BME280;60547;48.502;8.996;2023-04-16T00:10:00;97828.53;;;7.36;94.12
72525;BME280;60547;48.502;8.996;2023-04-16T00:12:26;97830.16;;;7.34;93.35
72525;BME280;60547;48.502;8.996;2023-04-16T00:14:51;97832.09;;;7.37;93.45
72525;BME280;60547;48.502;8.996;2023-04-16T00:17:17;97829.22;;;7.44;93.14
72525;BME280;60547;48.502;8.996;2023-04-16T00:19:42;97845.03;;;7.43;93.43
72525;BME280;60547;48.502;8.996;2023-04-16T00:22:08;97828.16;;;7.34;93.97
72525;BME280;60547;48.502;8.996;2023-04-16T00:24:33;97838.03;;;7.35;94.53
72525;BME280;60547;48.502;8.996;2023-04-16T00:26:59;97841.06;;;7.44;93.88
72525;BME280;60547;48.502;8.996;2023-04-16T00:29:25;97840.25;;;7.48;93.53
72525;BME280;60547;48.502;8.996;2023-04-16T00:31:52;97835.91;;;7.47;93.46
72525;BME280;60547;48.502;8.996;2023-04-16T00:34:18;97842.53;;;7.53;93.23
72525;BME280;60547;48.502;8.996;2023-04-16T00:36:43;97837.78;;;7.53;93.83
72525;BME280;60547;48.502;8.996;2023-04-16T00:39:09;97829.09;;;7.24;94.01
72525;BME280;60547;48.502;8.996;2023-04-16T00:41:35;97838.81;;;7.36;93.73
72525;BME280;60547;48.502;8.996;2023-04-16T00:44:01;97822.38;;;7.25;93.52
72525;BME280;60547;48.502;8.996;2023-04-16T00:46:27;97840.84;;;7.32;93.76
72525;BME280;60547;48.502;8.996;2023-04-16T00:48:53;97823.94;;;7.26;94.68
72525;BME280;60547;48.502;8.996;2023-04-16T00:51:20;97833.75;;;7.31;94.19
72525;BME280;60547;48.502;8.996;2023-04-16T00:53:46;97836.47;;;7.34;93.74
72525;BME280;60547;48.502;8.996;2023-04-16T00:56:11;97843.66;;;7.28;94.41
72525;BME280;60547;48.502;8.996;2023-04-16T00:58:38;97845.56;;;7.35;94.18
72525;BME280;60547;48.502;8.996;2023-04-16T01:01:07;97841.38;;;7.23;94.56
72525;BME280;60547;48.502;8.996;2023-04-16T01:03:42;97849.63;;;7.27;94.91
72525;BME280;60547;48.502;8.996;2023-04-16T01:06:08;97835.09;;;7.19;94.43
72525;BME280;60547;48.502;8.996;2023-04-16T01:08:34;97845.25;;;7.29;93.87
72525;BME280;60547;48.502;8.996;2023-04-16T01:11:00;97844.50;;;7.25;94.57
72525;BME280;60547;48.502;8.996;2023-04-16T01:13:29;97847.72;;;7.20;94.70
72525;BME280;60547;48.502;8.996;2023-04-16T01:15:56;97835.94;;;7.16;94.44
72525;BME280;60547;48.502;8.996;2023-04-16T01:18:25;97840.16;;;7.24;94.57
72525;BME280;60547;48.502;8.996;2023-04-16T01:20:51;97854.75;;;7.28;94.60
72525;BME280;60547;48.502;8.996;2023-04-16T01:23:17;97853.06;;;7.34;93.57
72525;BME280;60547;48.502;8.996;2023-04-16T01:25:44;97851.97;;;7.28;94.69
72525;BME280;60547;48.502;8.996;2023-04-16T01:28:09;97850.50;;;7.20;94.70
72525;BME280;60547;48.502;8.996;2023-04-16T01:30:35;97857.03;;;7.33;93.74
72525;BME280;60547;48.502;8.996;2023-04-16T01:33:01;97854.66;;;7.35;93.83
72525;BME280;60547;48.502;8.996;2023-04-16T01:35:26;97864.09;;;7.38;94.44
72525;BME280;60547;48.502;8.996;2023-04-16T01:37:52;97852.91;;;7.18;95.23
72525;BME280;60547;48.502;8.996;2023-04-16T01:40:18;97850.91;;;7.19;95.24
72525;BME280;60547;48.502;8.996;2023-04-16T01:42:43;97855.47;;;7.32;94.59
72525;BME280;60547;48.502;8.996;2023-04-16T01:45:09;97868.94;;;7.30;94.77
72525;BME280;60547;48.502;8.996;2023-04-16T01:47:35;97864.94;;;7.35;94.46
72525;BME280;60547;48.502;8.996;2023-04-16T01:50:03;97867.28;;;7.36;94.63
72525;BME280;60547;48.502;8.996;2023-04-16T01:52:29;97864.06;;;7.41;94.13
72525;BME280;60547;48.502;8.996;2023-04-16T01:54:55;97858.63;;;7.34;94.18
72525;BME280;60547;48.502;8.996;2023-04-16T01:57:20;97861.78;;;7.33;95.19
72525;BME280;60547;48.502;8.996;2023-04-16T01:59:46;97847.22;;;7.29;95.33
72525;BME280;60547;48.502;8.996;2023-04-16T02:02:14;97859.34;;;7.38;95.28
72525;BME280;60547;48.502;8.996;2023-04-16T02:04:43;97855.09;;;7.30;95.83
72525;BME280;60547;48.502;8.996;2023-04-16T02:07:11;97858.25;;;7.32;95.91
72525;BME280;60547;48.502;8.996;2023-04-16T02:09:40;97857.81;;;7.34;96.43
72525;BME280;60547;48.502;8.996;2023-04-16T02:12:07;97860.97;;;7.36;95.67
72525;BME280;60547;48.502;8.996;2023-04-16T02:14:35;97847.53;;;7.34;95.31
72525;BME280;60547;48.502;8.996;2023-04-16T02:17:01;97856.63;;;7.35;95.55
72525;BME280;60547;48.502;8.996;2023-04-16T02:19:26;97861.09;;;7.25;96.11
72525;BME280;60547;48.502;8.996;2023-04-16T02:21:52;97864.50;;;7.36;95.39
72525;BME280;60547;48.502;8.996;2023-04-16T02:24:19;97864.94;;;7.35;95.92
72525;BME280;60547;48.502;8.996;2023-04-16T02:26:45;97855.00;;;7.07;95.98
72525;BME280;60547;48.502;8.996;2023-04-16T02:29:11;97848.31;;;7.04;96.19
72525;BME280;60547;48.502;8.996;2023-04-16T02:31:36;97869.38;;;7.29;96.10
72525;BME280;60547;48.502;8.996;2023-04-16T02:34:03;97868.66;;;7.21;96.41
72525;BME280;60547;48.502;8.996;2023-04-16T02:36:30;97863.13;;;7.21;96.47
72525;BME280;60547;48.502;8.996;2023-04-16T02:38:57;97876.41;;;7.33;96.14
72525;BME280;60547;48.502;8.996;2023-04-16T02:41:23;97864.56;;;7.33;95.68
72525;BME280;60547;48.502;8.996;2023-04-16T02:43:48;97870.50;;;7.31;95.86
72525;BME280;60547;48.502;8.996;2023-04-16T02:46:14;97867.38;;;7.29;96.17
72525;BME280;60547;48.502;8.996;2023-04-16T02:48:39;97871.34;;;7.28;96.81
72525;BME280;60547;48.502;8.996;2023-04-16T02:51:05;97871.34;;;7.28;96.68
72525;BME280;60547;48.502;8.996;2023-04-16T02:53:30;97880.03;;;7.30;97.25
72525;BME280;60547;48.502;8.996;2023-04-16T02:55:56;97858.53;;;7.11;97.44
72525;BME280;60547;48.502;8.996;2023-04-16T02:58:23;97876.88;;;7.28;97.37
72525;BME280;60547;48.502;8.996;2023-04-16T03:00:50;97856.44;;;7.19;97.08
72525;BME280;60547;48.502;8.996;2023-04-16T03:03:15;97875.31;;;7.27;97.13
72525;BME280;60547;48.502;8.996;2023-04-16T03:05:43;97863.59;;;7.16;97.25
72525;BME280;60547;48.502;8.996;2023-04-16T03:08:08;97881.53;;;7.35;96.91
72525;BME280;60547;48.502;8.996;2023-04-16T03:10:34;97870.59;;;7.24;96.95
72525;BME280;60547;48.502;8.996;2023-04-16T03:13:00;97875.69;;;7.29;97.07
72525;BME280;60547;48.502;8.996;2023-04-16T03:15:26;97858.84;;;7.17;96.90
72525;BME280;60547;48.502;8.996;2023-04-16T03:17:52;97889.09;;;7.31;96.43
72525;BME280;60547;48.502;8.996;2023-04-16T03:20:18;97880.81;;;7.31;96.88
72525;BME280;60547;48.502;8.996;2023-04-16T03:22:44;97874.13;;;7.28;96.50
72525;BME280;60547;48.502;8.996;2023-04-16T03:25:10;97880.03;;;7.30;96.56
72525;BME280;60547;48.502;8.996;2023-04-16T03:27:36;97866.63;;;7.25;96.61
72525;BME280;60547;48.502;8.996;2023-04-16T03:30:11;97885.09;;;7.35;96.92
72525;BME280;60547;48.502;8.996;2023-04-16T03:32:37;97879.94;;;7.37;96.47
72525;BME280;60547;48.502;8.996;2023-04-16T03:35:03;97882.41;;;7.28;96.56
72525;BME280;60547;48.502;8.996;2023-04-16T03:37:51;97866.44;;;7.09;96.70
72525;BME280;60547;48.502;8.996;2023-04-16T03:40:20;97883.00;;;7.12;97.50
72525;BME280;60547;48.502;8.996;2023-04-16T03:42:45;97885.00;;;7.12;97.36
72525;BME280;60547;48.502;8.996;2023-04-16T03:45:11;97873.19;;;7.08;97.15
72525;BME280;60547;48.502;8.996;2023-04-16T03:47:38;97889.16;;;7.27;96.42
72525;BME280;60547;48.502;8.996;2023-04-16T03:50:04;97883.44;;;7.11;96.43
72525;BME280;60547;48.502;8.996;2023-04-16T03:52:31;97880.38;;;7.02;96.73
72525;BME280;60547;48.502;8.996;2023-04-16T03:54:56;97903.56;;;7.11;97.70
72525;BME280;60547;48.502;8.996;2023-04-16T03:57:25;97895.22;;;7.15;97.15
72525;BME280;60547;48.502;8.996;2023-04-16T03:59:51;97893.22;;;7.19;96.72
72525;BME280;60547;48.502;8.996;2023-04-16T04:02:17;97885.41;;;7.10;97.02
72525;BME280;60547;48.502;8.996;2023-04-16T04:04:43;97876.03;;;7.01;96.60
72525;BME280;60547;48.502;8.996;2023-04-16T04:07:09;97890.66;;;7.01;97.00
72525;BME280;60547;48.502;8.996;2023-04-16T04:09:34;97880.25;;;6.78;96.79
72525;BME280;60547;48.502;8.996;2023-04-16T04:12:00;97887.72;;;6.82;97.43
72525;BME280;60547;48.502;8.996;2023-04-16T04:14:26;97887.75;;;6.78;97.73
72525;BME280;60547;48.502;8.996;2023-04-16T04:16:54;97888.16;;;6.76;98.12
72525;BME280;60547;48.502;8.996;2023-04-16T04:19:19;97882.25;;;6.74;97.07
72525;BME280;60547;48.502;8.996;2023-04-16T04:21:45;97899.53;;;6.86;97.40
72525;BME280;60547;48.502;8.996;2023-04-16T04:24:11;97896.47;;;6.76;97.85
72525;BME280;60547;48.502;8.996;2023-04-16T04:26:45;97895.38;;;6.67;98.26
72525;BME280;60547;48.502;8.996;2023-04-16T04:29:12;97883.88;;;6.72;98.02
72525;BME280;60547;48.502;8.996;2023-04-16T04:31:38;97884.75;;;6.62;99.22
72525;BME280;60547;48.502;8.996;2023-04-16T04:34:08;97896.59;;;6.62;98.59
72525;BME280;60547;48.502;8.996;2023-04-16T04:36:35;97893.66;;;6.80;98.45
72525;BME280;60547;48.502;8.996;2023-04-16T04:39:00;97897.13;;;6.88;98.06
72525;BME280;60547;48.502;8.996;2023-04-16T04:41:27;97919.94;;;6.99;97.67
72525;BME280;60547;48.502;8.996;2023-04-16T04:43:52;97921.88;;;7.02;97.15
72525;BME280;60547;48.502;8.996;2023-04-16T04:46:18;97926.91;;;7.10;97.39
72525;BME280;60547;48.502;8.996;2023-04-16T04:48:43;97918.19;;;7.12;97.48
72525;BME280;60547;48.502;8.996;2023-04-16T04:51:09;97925.28;;;7.13;96.71
72525;BME280;60547;48.502;8.996;2023-04-16T04:53:35;97928.75;;;7.21;96.64
72525;BME280;60547;48.502;8.996;2023-04-16T04:56:01;97918.56;;;7.14;96.16
72525;BME280;60547;48.502;8.996;2023-04-16T04:58:27;97929.09;;;7.26;95.95
72525;BME280;60547;48.502;8.996;2023-04-16T05:00:54;97927.53;;;7.25;96.49
72525;BME280;60547;48.502;8.996;2023-04-16T05:03:20;97934.44;;;7.10;95.80
72525;BME280;60547;48.502;8.996;2023-04-16T05:05:47;97934.72;;;7.19;96.41
72525;BME280;60547;48.502;8.996;2023-04-16T05:08:14;97933.97;;;7.15;96.10
72525;BME280;60547;48.502;8.996;2023-04-16T05:10:39;97941.72;;;7.27;97.13
72525;BME280;60547;48.502;8.996;2023-04-16T05:13:08;97919.28;;;6.84;97.01
72525;BME280;60547;48.502;8.996;2023-04-16T05:15:33;97949.00;;;7.14;97.07
72525;BME280;60547;48.502;8.996;2023-04-16T05:18:01;97945.13;;;7.08;96.73
72525;BME280;60547;48.502;8.996;2023-04-16T05:20:26;97956.47;;;7.17;96.55
72525;BME280;60547;48.502;8.996;2023-04-16T05:22:52;97952.56;;;7.15;97.39
72525;BME280;60547;48.502;8.996;2023-04-16T05:25:20;97962.00;;;7.17;97.35
72525;BME280;60547;48.502;8.996;2023-04-16T05:27:48;97948.34;;;7.03;96.01
72525;BME280;60547;48.502;8.996;2023-04-16T05:30:14;97968.78;;;7.12;96.78
72525;BME280;60547;48.502;8.996;2023-04-16T05:32:39;97968.00;;;7.12;96.55
72525;BME280;60547;48.502;8.996;2023-04-16T05:35:05;97964.09;;;7.06;96.23
72525;BME280;60547;48.502;8.996;2023-04-16T05:37:32;97964.53;;;7.04;96.30
72525;BME280;60547;48.502;8.996;2023-04-16T05:39:58;97968.84;;;7.05;97.03
72525;BME280;60547;48.502;8.996;2023-04-16T05:42:23;97955.50;;;6.97;97.31
72525;BME280;60547;48.502;8.996;2023-04-16T05:44:49;97973.53;;;7.12;97.20
72525;BME280;60547;48.502;8.996;2023-04-16T05:47:15;97956.31;;;6.97;96.70
72525;BME280;60547;48.502;8.996;2023-04-16T05:49:41;97980.25;;;7.11;96.43
72525;BME280;60547;48.502;8.996;2023-04-16T05:52:07;97977.47;;;7.15;96.85
72525;BME280;60547;48.502;8.996;2023-04-16T05:54:36;97993.66;;;7.16;97.33
72525;BME280;60547;48.502;8.996;2023-04-16T05:57:02;97976.75;;;7.07;96.97
72525;BME280;60547;48.502;8.996;2023-04-16T05:59:28;97991.53;;;6.90;97.88
72525;BME280;60547;48.502;8.996;2023-04-16T06:01:55;97985.59;;;6.91;97.72
72525;BME280;60547;48.502;8.996;2023-04-16T06:04:23;97988.09;;;6.78;98.02
72525;BME280;60547;48.502;8.996;2023-04-16T06:06:48;97988.34;;;6.95;98.64
72525;BME280;60547;48.502;8.996;2023-04-16T06:09:14;97981.72;;;6.85;98.58
72525;BME280;60547;48.502;8.996;2023-04-16T06:11:40;98003.72;;;6.96;98.32
72525;BME280;60547;48.502;8.996;2023-04-16T06:14:05;97990.00;;;6.85;98.29
72525;BME280;60547;48.502;8.996;2023-04-16T06:16:32;97974.69;;;6.77;97.79
72525;BME280;60547;48.502;8.996;2023-04-16T06:18:57;97998.31;;;6.85;98.27
72525;BME280;60547;48.502;8.996;2023-04-16T06:21:23;98001.41;;;6.91;99.13
72525;BME280;60547;48.502;8.996;2023-04-16T06:23:49;98002.72;;;6.75;98.39
72525;BME280;60547;48.502;8.996;2023-04-16T06:26:14;97999.13;;;6.82;98.18
72525;BME280;60547;48.502;8.996;2023-04-16T06:28:40;98002.59;;;6.90;97.72
72525;BME280;60547;48.502;8.996;2023-04-16T06:31:05;97998.34;;;6.82;98.02
72525;BME280;60547;48.502;8.996;2023-04-16T06:33:31;98012.44;;;6.94;97.62
72525;BME280;60547;48.502;8.996;2023-04-16T06:35:56;97999.72;;;6.59;98.93
72525;BME280;60547;48.502;8.996;2023-04-16T06:38:22;98009.53;;;6.67;98.96
72525;BME280;60547;48.502;8.996;2023-04-16T06:40:47;98002.72;;;6.75;99.04
72525;BME280;60547;48.502;8.996;2023-04-16T06:43:14;98002.41;;;6.66;99.46
72525;BME280;60547;48.502;8.996;2023-04-16T06:45:40;98009.97;;;6.62;99.43
72525;BME280;60547;48.502;8.996;2023-04-16T06:48:06;97996.91;;;6.63;99.48
72525;BME280;60547;48.502;8.996;2023-04-16T06:50:32;98007.56;;;6.64;100.00
72525;BME280;60547;48.502;8.996;2023-04-16T06:52:58;98007.19;;;6.62;99.21
72525;BME280;60547;48.502;8.996;2023-04-16T06:55:24;97987.53;;;6.53;99.35
72525;BME280;60547;48.502;8.996;2023-04-16T06:57:49;98017.44;;;6.65;98.89
72525;BME280;60547;48.502;8.996;2023-04-16T07:00:18;98020.91;;;6.76;98.65
72525;BME280;60547;48.502;8.996;2023-04-16T07:02:43;98013.41;;;6.73;98.68
72525;BME280;60547;48.502;8.996;2023-04-16T07:05:09;98001.00;;;6.47;99.90
72525;BME280;60547;48.502;8.996;2023-04-16T07:07:34;98003.28;;;6.56;99.23
72525;BME280;60547;48.502;8.996;2023-04-16T07:10:00;98033.22;;;6.68;100.00
72525;BME280;60547;48.502;8.996;2023-04-16T07:12:28;98029.28;;;6.66;99.25
72525;BME280;60547;48.502;8.996;2023-04-16T07:14:54;98018.25;;;6.62;99.16
72525;BME280;60547;48.502;8.996;2023-04-16T07:17:19;98016.34;;;6.52;99.83
72525;BME280;60547;48.502;8.996;2023-04-16T07:19:45;98008.13;;;6.45;99.83
72525;BME280;60547;48.502;8.996;2023-04-16T07:22:10;98027.72;;;6.65;99.68
72525;BME280;60547;48.502;8.996;2023-04-16T07:24:36;98031.66;;;6.64;98.57
72525;BME280;60547;48.502;8.996;2023-04-16T07:27:01;98026.59;;;6.55;99.70
72525;BME280;60547;48.502;8.996;2023-04-16T07:29:27;98018.63;;;6.64;99.36
72525;BME280;60547;48.502;8.996;2023-04-16T07:31:53;98012.34;;;6.60;99.01
72525;BME280;60547;48.502;8.996;2023-04-16T07:34:18;98016.19;;;6.73;98.24
72525;BME280;60547;48.502;8.996;2023-04-16T07:36:44;98039.44;;;6.79;97.38
72525;BME280;60547;48.502;8.996;2023-04-16T07:39:09;98039.41;;;6.83;98.14
72525;BME280;60547;48.502;8.996;2023-04-16T07:41:36;98050.81;;;6.89;96.84
72525;BME280;60547;48.502;8.996;2023-04-16T07:44:04;98039.50;;;6.72;97.94
72525;BME280;60547;48.502;8.996;2023-04-16T07:46:30;98037.88;;;6.78;98.38
72525;BME280;60547;48.502;8.996;2023-04-16T07:48:56;98031.94;;;6.80;98.09
72525;BME280;60547;48.502;8.996;2023-04-16T07:51:22;98063.47;;;6.90;97.89
72525;BME280;60547;48.502;8.996;2023-04-16T07:53:47;98052.06;;;6.80;97.19
72525;BME280;60547;48.502;8.996;2023-04-16T07:56:20;98055.97;;;6.87;97.15
72525;BME280;60547;48.502;8.996;2023-04-16T07:58:54;98075.34;;;6.87;97.74
72525;BME280;60547;48.502;8.996;2023-04-16T08:01:20;98057.22;;;6.78;98.42
72525;BME280;60547;48.502;8.996;2023-04-16T08:03:48;98070.56;;;6.91;97.55
72525;BME280;60547;48.502;8.996;2023-04-16T08:06:18;98072.09;;;6.95;97.87
72525;BME280;60547;48.502;8.996;2023-04-16T08:08:43;98052.09;;;6.77;97.07
72525;BME280;60547;48.502;8.996;2023-04-16T08:11:09;98072.56;;;6.87;96.81
72525;BME280;60547;48.502;8.996;2023-04-16T08:13:34;98071.34;;;6.91;97.36
72525;BME280;60547;48.502;8.996;2023-04-16T08:16:00;98058.50;;;6.67;96.70
72525;BME280;60547;48.502;8.996;2023-04-16T08:18:26;98080.53;;;6.81;97.32
72525;BME280;60547;48.502;8.996;2023-04-16T08:20:51;98080.53;;;6.77;98.03
72525;BME280;60547;48.502;8.996;2023-04-16T08:23:17;98052.19;;;6.66;97.03
72525;BME280;60547;48.502;8.996;2023-04-16T08:25:42;98079.78;;;6.73;96.12
72525;BME280;60547;48.502;8.996;2023-04-16T08:28:08;98104.09;;;6.96;96.67
72525;BME280;60547;48.502;8.996;2023-04-16T08:30:33;98096.53;;;7.04;96.62
72525;BME280;60547;48.502;8.996;2023-04-16T08:32:59;98100.16;;;6.94;96.57
72525;BME280;60547;48.502;8.996;2023-04-16T08:35:25;98112.00;;;6.98;95.75
72525;BME280;60547;48.502;8.996;2023-04-16T08:37:51;98096.28;;;6.88;96.42
72525;BME280;60547;48.502;8.996;2023-04-16T08:40:18;98089.56;;;6.85;96.70
72525;BME280;60547;48.502;8.996;2023-04-16T08:42:54;98085.66;;;6.79;97.16
72525;BME280;60547;48.502;8.996;2023-04-16T08:45:20;98093.13;;;6.86;96.51
72525;BME280;60547;48.502;8.996;2023-04-16T08:47:47;98104.06;;;7.00;95.90
72525;BME280;60547;48.502;8.996;2023-04-16T08:50:14;98103.25;;;7.03;94.77
72525;BME280;60547;48.502;8.996;2023-04-16T08:52:58;98093.84;;;6.93;95.16
72525;BME280;60547;48.502;8.996;2023-04-16T08:55:30;98115.97;;;6.97;94.53
72525;BME280;60547;48.502;8.996;2023-04-16T08:57:57;98107.25;;;6.98;95.33
72525;BME280;60547;48.502;8.996;2023-04-16T09:00:23;98119.06;;;7.02;95.54
72525;BME280;60547;48.502;8.996;2023-04-16T09:02:49;98127.72;;;7.08;95.04
72525;BME280;60547;48.502;8.996;2023-04-16T09:05:16;98126.97;;;7.04;94.91
72525;BME280;60547;48.502;8.996;2023-04-16T09:07:44;98111.88;;;7.12;93.96
72525;BME280;60547;48.502;8.996;2023-04-16T09:10:10;98122.06;;;7.22;93.28
72525;BME280;60547;48.502;8.996;2023-04-16T09:12:36;98112.81;;;6.95;93.87
72525;BME280;60547;48.502;8.996;2023-04-16T09:15:04;98122.97;;;7.08;93.77
72525;BME280;60547;48.502;8.996;2023-04-16T09:17:30;98142.22;;;7.23;94.46
72525;BME280;60547;48.502;8.996;2023-04-16T09:19:55;98134.78;;;7.16;94.28
72525;BME280;60547;48.502;8.996;2023-04-16T09:22:21;98125.34;;;7.10;93.98
72525;BME280;60547;48.502;8.996;2023-04-16T09:24:47;98126.22;;;7.00;93.89
72525;BME280;60547;48.502;8.996;2023-04-16T09:27:12;98135.47;;;7.27;93.41
72525;BME280;60547;48.502;8.996;2023-04-16T09:29:40;98113.50;;;7.06;93.62
72525;BME280;60547;48.502;8.996;2023-04-16T09:32:10;98125.56;;;7.30;93.06
72525;BME280;60547;48.502;8.996;2023-04-16T09:35:02;98141.25;;;7.43;92.66
72525;BME280;60547;48.502;8.996;2023-04-16T09:37:30;98135.78;;;7.36;94.59
72525;BME280;60547;48.502;8.996;2023-04-16T09:40:00;98143.34;;;7.32;92.58
72525;BME280;60547;48.502;8.996;2023-04-16T09:42:31;98124.69;;;7.40;93.07
72525;BME280;60547;48.502;8.996;2023-04-16T09:44:58;98148.53;;;7.68;93.37
72525;BME280;60547;48.502;8.996;2023-04-16T09:47:25;98144.03;;;7.81;92.24
72525;BME280;60547;48.502;8.996;2023-04-16T09:49:50;98140.19;;;7.71;92.20
72525;BME280;60547;48.502;8.996;2023-04-16T09:52:21;98133.56;;;7.62;92.23
72525;BME280;60547;48.502;8.996;2023-04-16T09:54:50;98156.28;;;7.84;90.61
72525;BME280;60547;48.502;8.996;2023-04-16T09:57:22;98142.44;;;7.84;91.34
72525;BME280;60547;48.502;8.996;2023-04-16T09:59:51;98136.25;;;7.69;92.05
72525;BME280;60547;48.502;8.996;2023-04-16T10:02:17;98137.44;;;7.68;90.72
72525;BME280;60547;48.502;8.996;2023-04-16T10:04:49;98138.19;;;7.72;90.75
72525;BME280;60547;48.502;8.996;2023-04-16T10:07:15;98168.72;;;8.06;90.56
72525;BME280;60547;48.502;8.996;2023-04-16T10:09:41;98139.66;;;7.84;90.21
72525;BME280;60547;48.502;8.996;2023-04-16T10:12:08;98146.81;;;7.81;91.34
72525;BME280;60547;48.502;8.996;2023-04-16T10:14:34;98169.31;;;7.87;91.85
72525;BME280;60547;48.502;8.996;2023-04-16T10:17:01;98137.50;;;7.64;92.07
72525;BME280;60547;48.502;8.996;2023-04-16T10:19:27;98169.03;;;7.74;91.85
72525;BME280;60547;48.502;8.996;2023-04-16T10:21:56;98150.97;;;7.62;91.20
72525;BME280;60547;48.502;8.996;2023-04-16T10:24:32;98165.91;;;7.72;90.48
72525;BME280;60547;48.502;8.996;2023-04-16T10:27:00;98174.63;;;7.70;90.79
72525;BME280;60547;48.502;8.996;2023-04-16T10:29:27;98159.69;;;7.61;91.53
72525;BME280;60547;48.502;8.996;2023-04-16T10:31:54;98162.84;;;7.59;92.36
72525;BME280;60547;48.502;8.996;2023-04-16T10:34:21;98170.25;;;7.73;91.10
72525;BME280;60547;48.502;8.996;2023-04-16T10:36:48;98164.31;;;7.71;91.46
72525;BME280;60547;48.502;8.996;2023-04-16T10:39:22;98163.56;;;7.67;90.96
72525;BME280;60547;48.502;8.996;2023-04-16T10:41:50;98164.19;;;7.85;90.05
72525;BME280;60547;48.502;8.996;2023-04-16T10:44:30;98192.56;;;7.96;91.37
72525;BME280;60547;48.502;8.996;2023-04-16T10:46:58;98185.09;;;7.90;92.28
72525;BME280;60547;48.502;8.996;2023-04-16T10:49:24;98163.31;;;7.92;90.89
72525;BME280;60547;48.502;8.996;2023-04-16T10:51:58;98169.59;;;7.96;92.90
72525;BME280;60547;48.502;8.996;2023-04-16T10:54:31;98160.97;;;7.90;91.08
72525;BME280;60547;48.502;8.996;2023-04-16T10:56:59;98171.97;;;7.97;90.06
72525;BME280;60547;48.502;8.996;2023-04-16T10:59:35;98182.97;;;8.04;89.20
72525;BME280;60547;48.502;8.996;2023-04-16T11:02:06;98166.88;;;7.92;89.17
72525;BME280;60547;48.502;8.996;2023-04-16T11:07:30;98172.53;;;7.82;90.61
72525;BME280;60547;48.502;8.996;2023-04-16T11:10:12;98189.78;;;7.96;90.28
72525;BME280;60547;48.502;8.996;2023-04-16T11:12:39;98189.50;;;7.87;90.39
72525;BME280;60547;48.502;8.996;2023-04-16T11:15:13;98160.34;;;7.72;89.96
72525;BME280;60547;48.502;8.996;2023-04-16T11:17:47;98178.47;;;7.80;89.74
72525;BME280;60547;48.502;8.996;2023-04-16T11:20:17;98184.03;;;7.80;91.37
72525;BME280;60547;48.502;8.996;2023-04-16T11:22:44;98142.31;;;7.57;90.51
72525;BME280;60547;48.502;8.996;2023-04-16T11:25:10;98159.97;;;7.70;90.81
72525;BME280;60547;48.502;8.996;2023-04-16T11:27:36;98147.81;;;7.60;89.91
72525;BME280;60547;48.502;8.996;2023-04-16T11:30:06;98185.47;;;7.92;91.12
72525;BME280;60547;48.502;8.996;2023-04-16T11:32:37;98169.00;;;7.77;89.74
72525;BME280;60547;48.502;8.996;2023-04-16T11:35:11;98190.28;;;7.88;90.13
72525;BME280;60547;48.502;8.996;2023-04-16T11:37:38;98164.38;;;7.67;90.12
72525;BME280;60547;48.502;8.996;2023-04-16T11:40:04;98163.19;;;7.65;90.33
72525;BME280;60547;48.502;8.996;2023-04-16T11:42:38;98186.78;;;7.80;90.75
72525;BME280;60547;48.502;8.996;2023-04-16T11:45:08;98179.50;;;7.56;90.59
72525;BME280;60547;48.502;8.996;2023-04-16T11:47:49;98168.38;;;7.63;90.96
72525;BME280;60547;48.502;8.996;2023-04-16T11:50:24;98162.09;;;7.55;91.15
72525;BME280;60547;48.502;8.996;2023-04-16T11:52:51;98194.75;;;7.74;90.95
72525;BME280;60547;48.502;8.996;2023-04-16T11:55:18;98176.66;;;7.63;90.16
72525;BME280;60547;48.502;8.996;2023-04-16T11:57:43;98177.09;;;7.61;90.84
72525;BME280;60547;48.502;8.996;2023-04-16T12:00:11;98193.78;;;7.92;89.84
72525;BME280;60547;48.502;8.996;2023-04-16T12:02:42;98204.53;;;7.86;90.38
72525;BME280;60547;48.502;8.996;2023-04-16T12:07:53;98206.59;;;7.78;90.65
72525;BME280;60547;48.502;8.996;2023-04-16T12:10:20;98204.34;;;7.66;91.67
72525;BME280;60547;48.502;8.996;2023-04-16T12:12:45;98174.66;;;7.67;90.29
72525;BME280;60547;48.502;8.996;2023-04-16T12:15:11;98190.72;;;7.83;89.25
72525;BME280;60547;48.502;8.996;2023-04-16T12:17:37;98174.66;;;7.67;91.22
72525;BME280;60547;48.502;8.996;2023-04-16T12:20:07;98215.06;;;8.02;90.67
72525;BME280;60547;48.502;8.996;2023-04-16T12:22:36;98186.34;;;7.85;91.15
72525;BME280;60547;48.502;8.996;2023-04-16T12:25:03;98213.94;;;7.96;91.26
72525;BME280;60547;48.502;8.996;2023-04-16T12:27:49;98217.81;;;8.05;89.32
72525;BME280;60547;48.502;8.996;2023-04-16T12:30:25;98203.66;;;7.96;90.67
72525;BME280;60547;48.502;8.996;2023-04-16T12:35:40;98218.84;;;8.19;90.09
72525;BME280;60547;48.502;8.996;2023-04-16T12:38:07;98213.69;;;8.21;89.07
72525;BME280;60547;48.502;8.996;2023-04-16T12:40:33;98207.31;;;8.24;89.86
72525;BME280;60547;48.502;8.996;2023-04-16T12:43:00;98212.03;;;8.27;89.17
72525;BME280;60547;48.502;8.996;2023-04-16T12:45:25;98222.53;;;8.46;90.37
72525;BME280;60547;48.502;8.996;2023-04-16T12:47:51;98214.94;;;8.50;88.01
72525;BME280;60547;48.502;8.996;2023-04-16T12:50:17;98218.53;;;8.47;91.14
72525;BME280;60547;48.502;8.996;2023-04-16T12:52:42;98214.28;;;8.39;89.73
72525;BME280;60547;48.502;8.996;2023-04-16T12:55:08;98222.66;;;8.32;89.67
72525;BME280;60547;48.502;8.996;2023-04-16T12:57:34;98220.25;;;8.37;88.68
72525;BME280;60547;48.502;8.996;2023-04-16T12:59:59;98217.06;;;8.39;89.42
72525;BME280;60547;48.502;8.996;2023-04-16T13:02:25;98215.97;;;8.29;89.94
72525;BME280;60547;48.502;8.996;2023-04-16T13:04:51;98204.13;;;8.25;90.67
72525;BME280;60547;48.502;8.996;2023-04-16T13:07:18;98215.06;;;8.39;91.61
72525;BME280;60547;48.502;8.996;2023-04-16T13:09:44;98211.97;;;8.34;91.96
72525;BME280;60547;48.502;8.996;2023-04-16T13:12:10;98214.25;;;8.43;90.65
72525;BME280;60547;48.502;8.996;2023-04-16T13:14:36;98212.63;;;8.45;91.16
72525;BME280;60547;48.502;8.996;2023-04-16T13:17:01;98196.41;;;8.44;91.03